Time;durP1;ratioP1;P1;durP2;ratioP2;P2;SDS_P1;SDS_P2;PMS_P1;PMS_P2;Temp;Humidity;BMP_temperature;BMP_pressure;BME280_temperature;BME280_humidity;BME280_pressure;Samples;Min_cycle;Max_cycle;Signal;HPM_P1;HPM_P2
2021/12/19 00:08:27;;;;;;;15.20;6.47;;;;;;;3.65;100.00;103881.06;5053994;28;20037;-77
2021/12/19 00:10:26;;;;;;;22.60;5.60;;;;;;;3.75;100.00;103879.16;5050937;28;20041;-79
2021/12/19 00:12:53;;;;;;;16.38;5.30;;;;;;;3.75;100.00;103869.53;5035737;28;20064;-78
2021/12/19 00:15:19;;;;;;;17.92;5.55;;;;;;;3.77;100.00;103873.00;5052771;28;20432;-78
2021/12/19 00:17:45;;;;;;;17.88;5.72;;;;;;;3.78;100.00;103858.94;5052508;28;20033;-78
2021/12/19 00:20:10;;;;;;;17.50;5.72;;;;;;;3.81;100.00;103861.53;5053020;28;20029;-79
2021/12/19 00:22:36;;;;;;;15.48;5.53;;;;;;;3.84;100.00;103850.94;5053967;28;20028;-78
2021/12/19 00:25:03;;;;;;;13.25;5.22;;;;;;;3.88;100.00;103852.66;5053716;28;20488;-78
2021/12/19 00:27:29;;;;;;;16.45;5.55;;;;;;;3.91;100.00;103854.34;5051178;28;20086;-78
2021/12/19 00:29:54;;;;;;;21.77;6.18;;;;;;;3.95;100.00;103853.44;5052064;28;20041;-78
2021/12/19 00:32:20;;;;;;;23.90;6.45;;;;;;;4.02;100.00;103852.44;5053395;28;20126;-79
2021/12/19 00:34:45;;;;;;;19.02;6.35;;;;;;;4.08;100.00;103850.63;5052923;28;21464;-79
2021/12/19 00:37:11;;;;;;;19.80;6.22;;;;;;;4.12;100.00;103852.31;5053312;28;20047;-82
2021/12/19 00:39:37;;;;;;;20.40;6.45;;;;;;;4.17;100.00;103848.72;5054743;28;20059;-78
2021/12/19 00:42:07;;;;;;;19.17;6.57;;;;;;;4.22;100.00;103851.28;5053522;28;20529;-78
2021/12/19 00:44:35;;;;;;;22.20;7.00;;;;;;;4.26;100.00;103847.69;5052395;28;20025;-77
2021/12/19 00:47:04;;;;;;;20.85;6.00;;;;;;;4.30;100.00;103837.97;5051307;28;20473;-77
2021/12/19 00:49:30;;;;;;;16.48;5.93;;;;;;;4.34;100.00;103842.31;5051861;28;20097;-78
2021/12/19 00:51:56;;;;;;;19.23;5.88;;;;;;;4.36;100.00;103833.47;5052736;28;20033;-80
2021/12/19 00:54:21;;;;;;;16.52;5.97;;;;;;;4.43;100.00;103836.00;5052196;28;20039;-79
2021/12/19 00:56:48;;;;;;;18.02;5.95;;;;;;;4.48;100.00;103831.50;5052891;28;20039;-79
2021/12/19 00:59:15;;;;;;;22.80;8.05;;;;;;;4.49;100.00;103834.13;5050600;28;20491;-79
2021/12/19 01:01:40;;;;;;;27.52;8.25;;;;;;;4.48;100.00;103831.50;5053052;28;20025;-79
2021/12/19 01:04:11;;;;;;;26.25;7.97;;;;;;;4.47;100.00;103833.28;5052205;28;20119;-79
2021/12/19 01:06:38;;;;;;;23.00;8.80;;;;;;;4.46;100.00;103831.53;5052434;28;20112;-78
2021/12/19 01:09:05;;;;;;;29.50;8.75;;;;;;;4.49;100.00;103831.50;5052645;28;20104;-78
2021/12/19 01:11:31;;;;;;;31.10;8.13;;;;;;;4.52;100.00;103817.38;5051865;28;20116;-77
2021/12/19 01:13:56;;;;;;;26.17;8.65;;;;;;;4.53;100.00;103821.78;5053018;28;20151;-77
2021/12/19 01:16:22;;;;;;;21.38;7.07;;;;;;;4.59;100.00;103819.88;5051951;28;20497;-78
2021/12/19 01:18:47;;;;;;;20.42;7.05;;;;;;;4.62;100.00;103811.06;5052370;28;20033;-77
2021/12/19 01:21:13;;;;;;;21.42;6.35;;;;;;;4.64;100.00;103806.63;5052292;28;20458;-78
2021/12/19 01:23:39;;;;;;;13.57;5.50;;;;;;;4.64;100.00;103811.03;5051661;28;20418;-78
2021/12/19 01:26:05;;;;;;;27.33;8.82;;;;;;;4.65;100.00;103812.78;5052156;28;20095;-78
2021/12/19 01:28:30;;;;;;;21.75;7.10;;;;;;;4.66;100.00;103811.84;5050202;28;20116;-78
2021/12/19 01:30:56;;;;;;;14.38;4.90;;;;;;;4.65;100.00;103811.00;5052184;28;20037;-78
2021/12/19 01:33:22;;;;;;;10.10;3.70;;;;;;;4.63;100.00;103807.53;5052277;28;20021;-78
2021/12/19 01:35:47;;;;;;;11.18;3.72;;;;;;;4.60;100.00;103810.22;5052076;28;20473;-79
2021/12/19 01:38:13;;;;;;;8.95;3.35;;;;;;;4.58;100.00;103801.44;5051811;28;20033;-78
2021/12/19 01:40:39;;;;;;;10.07;4.28;;;;;;;4.57;100.00;103799.75;5051419;28;20088;-79
2021/12/19 01:43:04;;;;;;;12.05;4.30;;;;;;;4.58;100.00;103806.72;5051913;28;20064;-78
2021/12/19 01:45:34;;;;;;;8.73;3.97;;;;;;;4.56;100.00;103804.13;5051345;28;20377;-79
2021/12/19 01:48:03;;;;;;;5.15;2.90;;;;;;;4.57;100.00;103799.75;5051591;28;20120;-79
2021/12/19 01:50:31;;;;;;;8.88;2.80;;;;;;;4.55;100.00;103785.69;5051373;28;20051;-78
2021/12/19 01:52:58;;;;;;;3.47;2.25;;;;;;;4.57;100.00;103783.91;5050679;28;20033;-78
2021/12/19 01:55:23;;;;;;;5.80;2.50;;;;;;;4.58;100.00;103789.16;5051132;28;20087;-79
2021/12/19 01:57:50;;;;;;;7.65;2.85;;;;;;;4.59;100.00;103780.31;5051880;28;20037;-79
2021/12/19 02:00:31;;;;;;;9.85;2.83;;;;;;;4.61;100.00;103782.94;5051662;28;20028;-78
2021/12/19 02:02:57;;;;;;;13.32;3.38;;;;;;;4.63;100.00;103781.16;5050306;28;20041;-79
2021/12/19 02:05:25;;;;;;;13.57;3.28;;;;;;;4.66;100.00;103789.00;5051288;28;20033;-79
2021/12/19 02:07:51;;;;;;;12.88;3.08;;;;;;;4.66;100.00;103785.50;5051808;28;20060;-79
2021/12/19 02:10:19;;;;;;;9.27;3.33;;;;;;;4.65;100.00;103784.63;5051854;28;20500;-78
2021/12/19 02:12:47;;;;;;;7.30;2.67;;;;;;;4.63;100.00;103781.16;5050647;28;20032;-79
2021/12/19 02:15:24;;;;;;;13.80;4.03;;;;;;;4.61;100.00;103779.44;5050356;28;20025;-79
2021/12/19 02:17:52;;;;;;;9.90;3.17;;;;;;;4.61;100.00;103777.66;5051795;28;20029;-79
2021/12/19 02:20:19;;;;;;;13.07;3.70;;;;;;;4.62;100.00;103778.56;5051863;28;20087;-79
2021/12/19 02:22:45;;;;;;;13.57;3.70;;;;;;;4.63;100.00;103775.00;5051013;28;20033;-78
2021/12/19 02:25:11;;;;;;;14.15;4.10;;;;;;;4.64;100.00;103764.41;5051639;28;20060;-78
2021/12/19 02:27:37;;;;;;;12.98;4.57;;;;;;;4.68;100.00;103759.97;5050977;28;20033;-79
2021/12/19 02:30:06;;;;;;;15.85;4.68;;;;;;;4.72;100.00;103769.56;5051482;28;20035;-79
2021/12/19 02:32:32;;;;;;;16.30;5.10;;;;;;;4.73;100.00;103760.75;5051049;28;20421;-79
2021/12/19 02:35:01;;;;;;;14.95;4.72;;;;;;;4.77;100.00;103754.50;5050466;28;20354;-79
2021/12/19 02:48:14;;;;;;;15.32;5.63;;;;;;;4.84;100.00;103753.50;5051261;28;20122;-79
2021/12/19 02:50:50;;;;;;;16.38;5.50;;;;;;;4.84;100.00;103748.22;5053829;28;20040;-79
2021/12/19 02:53:26;;;;;;;16.02;5.18;;;;;;;4.85;100.00;103749.06;5055734;28;20473;-79
2021/12/19 02:55:51;;;;;;;14.00;4.95;;;;;;;4.84;100.00;103747.34;5056018;28;20040;-79
2021/12/19 02:58:16;;;;;;;12.95;5.00;;;;;;;4.83;100.00;103741.19;5055253;28;20033;-78
2021/12/19 03:00:42;;;;;;;16.73;4.60;;;;;;;4.83;100.00;103738.56;5054587;28;20041;-79
2021/12/19 03:03:07;;;;;;;10.95;3.92;;;;;;;4.84;100.00;103734.16;5053466;28;20037;-78
2021/12/19 03:05:33;;;;;;;7.85;3.60;;;;;;;4.84;100.00;103726.25;5052959;28;20033;-79
2021/12/19 03:08:02;;;;;;;8.48;4.05;;;;;;;4.84;100.00;103735.03;5054832;28;20099;-79
2021/12/19 03:18:40;;;;;;;13.10;3.38;;;;;;;4.90;100.00;103702.38;5054356;28;20120;-78
2021/12/19 03:21:11;;;;;;;7.97;3.10;;;;;;;4.92;100.00;103706.69;5054771;28;20415;-78
2021/12/19 03:23:37;;;;;;;9.23;3.33;;;;;;;4.92;100.00;103698.78;5054125;28;20053;-79
2021/12/19 03:26:03;;;;;;;9.45;3.33;;;;;;;4.93;100.00;103684.69;5053200;28;20025;-77
2021/12/19 03:28:28;;;;;;;11.07;3.53;;;;;;;4.93;100.00;103689.97;5054328;28;20033;-79
2021/12/19 03:30:54;;;;;;;8.05;3.40;;;;;;;4.90;100.00;103674.22;5054081;28;20032;-78
2021/12/19 03:33:20;;;;;;;11.88;3.95;;;;;;;4.90;100.00;103678.63;5054518;28;20466;-78
2021/12/19 03:35:46;;;;;;;8.50;3.60;;;;;;;4.90;100.00;103668.94;5053853;28;20053;-78
2021/12/19 03:38:14;;;;;;;14.63;4.20;;;;;;;4.91;100.00;103673.31;5054392;28;20116;-78
2021/12/19 03:40:43;;;;;;;13.75;4.35;;;;;;;4.93;100.00;103676.78;5053715;28;20116;-78
2021/12/19 03:43:15;;;;;;;15.07;4.30;;;;;;;4.95;100.00;103669.69;5052893;28;20354;-78
2021/12/19 03:45:42;;;;;;;10.45;3.58;;;;;;;4.98;100.00;103657.34;5053732;28;20362;-78
2021/12/19 03:48:12;;;;;;;12.60;3.65;;;;;;;4.97;100.00;103656.50;5053848;28;20054;-77
2021/12/19 03:50:39;;;;;;;10.60;3.50;;;;;;;5.01;100.00;103657.28;5053528;28;20539;-78
2021/12/19 03:53:05;;;;;;;12.82;3.50;;;;;;;5.03;100.00;103658.09;5052834;28;20397;-78
2021/12/19 03:55:31;;;;;;;14.00;3.50;;;;;;;5.03;100.00;103660.75;5053860;28;20033;-79
2021/12/19 03:57:58;;;;;;;9.48;3.30;;;;;;;5.04;100.00;103662.50;5053238;28;20036;-78
2021/12/19 04:00:26;;;;;;;14.07;3.95;;;;;;;5.03;100.00;103663.38;5054045;28;20057;-78
2021/12/19 04:02:54;;;;;;;8.02;3.20;;;;;;;5.03;100.00;103663.38;5051820;28;20032;-78
2021/12/19 04:05:20;;;;;;;9.13;3.15;;;;;;;5.03;100.00;103659.00;5054056;28;20033;-79
2021/12/19 04:07:45;;;;;;;11.63;3.45;;;;;;;5.04;100.00;103646.66;5053242;28;20032;-79
2021/12/19 04:10:11;;;;;;;10.63;3.63;;;;;;;5.03;100.00;103639.63;5053399;28;20444;-77
2021/12/19 04:12:37;;;;;;;12.35;3.55;;;;;;;5.04;100.00;103644.88;5053173;28;20114;-82
2021/12/19 04:15:04;;;;;;;12.63;4.10;;;;;;;5.05;100.00;103641.34;5053521;28;20052;-77
2021/12/19 04:17:29;;;;;;;13.68;4.28;;;;;;;5.04;100.00;103633.47;5053379;28;20153;-77
2021/12/19 04:19:55;;;;;;;12.75;3.83;;;;;;;5.04;100.00;103636.09;5053091;28;20540;-78
2021/12/19 04:22:20;;;;;;;12.95;4.05;;;;;;;5.07;100.00;103630.75;5054020;28;20120;-79
2021/12/19 04:24:46;;;;;;;12.52;4.20;;;;;;;5.08;100.00;103625.44;5052779;28;20033;-78
2021/12/19 04:27:11;;;;;;;12.88;4.47;;;;;;;5.10;100.00;103623.63;5053199;28;20385;-78
2021/12/19 04:29:36;;;;;;;12.93;3.72;;;;;;;5.11;100.00;103625.38;5052204;28;20029;-78
2021/12/19 04:32:02;;;;;;;12.95;3.80;;;;;;;5.12;100.00;103624.47;5052789;28;20388;-78
2021/12/19 04:34:27;;;;;;;13.52;4.28;;;;;;;5.12;100.00;103618.34;5053232;28;20048;-78
2021/12/19 04:37:00;;;;;;;10.48;4.13;;;;;;;5.14;100.00;103626.22;5051266;28;20126;-78
2021/12/19 04:57:57;;;;;;;16.48;5.50;;;;;;;5.26;100.00;103608.28;5052127;28;20045;-78
2021/12/19 05:00:35;;;;;;;11.85;4.57;;;;;;;5.21;100.00;103610.19;5052628;28;20040;-78
2021/12/19 05:03:14;;;;;;;13.38;4.75;;;;;;;5.19;100.00;103603.22;5052120;28;20036;-78
2021/12/19 05:16:23;;;;;;;4.38;1.90;;;;;;;5.05;100.00;103609.66;5052292;28;20495;-78
2021/12/19 05:18:50;;;;;;;7.45;1.80;;;;;;;5.02;100.00;103607.09;5051675;28;20060;-78
2021/12/19 05:21:19;;;;;;;6.85;2.03;;;;;;;5.00;100.00;103608.94;5052538;28;20033;-78
2021/12/19 05:26:10;;;;;;;8.63;2.65;;;;;;;5.00;100.00;103622.13;5052422;28;20045;-78
2021/12/19 05:28:36;;;;;;;4.80;1.90;;;;;;;5.00;100.00;103619.47;5052978;28;20028;-77
2021/12/19 05:31:02;;;;;;;5.78;1.98;;;;;;;5.00;100.00;103611.56;5051039;28;20033;-78
2021/12/19 05:33:27;;;;;;;6.03;2.10;;;;;;;5.01;100.00;103617.69;5034549;28;20044;-78
2021/12/19 05:46:36;;;;;;;9.13;1.42;;;;;;;4.93;100.00;103616.09;5051190;28;20120;-78
2021/12/19 05:49:04;;;;;;;4.13;1.50;;;;;;;4.95;100.00;103602.88;5051756;28;20115;-78
2021/12/19 05:51:30;;;;;;;3.05;1.30;;;;;;;4.96;100.00;103599.34;5052314;28;20033;-77
2021/12/19 05:53:55;;;;;;;3.72;1.00;;;;;;;4.98;100.00;103605.44;5050301;28;20072;-78
2021/12/19 05:56:21;;;;;;;2.00;1.13;;;;;;;4.99;100.00;103598.41;5051986;28;20037;-78
2021/12/19 05:58:46;;;;;;;2.83;1.40;;;;;;;4.98;100.00;103596.66;5051856;28;20030;-79
2021/12/19 06:01:12;;;;;;;3.90;1.58;;;;;;;4.99;100.00;103599.25;5051758;28;20082;-79
2021/12/19 06:03:37;;;;;;;5.55;1.38;;;;;;;5.02;100.00;103595.69;5052323;28;20044;-78
2021/12/19 06:06:03;;;;;;;3.78;1.50;;;;;;;5.02;100.00;103587.78;5050039;28;20033;-78
2021/12/19 06:08:28;;;;;;;5.03;1.35;;;;;;;5.02;100.00;103587.78;5051862;28;20063;-78
2021/12/19 06:10:53;;;;;;;5.30;1.80;;;;;;;5.03;100.00;103590.38;5051228;28;20037;-79
2021/12/19 06:13:19;;;;;;;5.13;1.83;;;;;;;5.03;100.00;103585.09;5051868;28;20611;-78
2021/12/19 06:15:44;;;;;;;6.20;1.63;;;;;;;5.04;100.00;103581.53;5050550;28;20470;-76
2021/12/19 06:18:10;;;;;;;2.45;1.42;;;;;;;5.07;100.00;103581.47;5050128;28;20358;-79
2021/12/19 06:20:35;;;;;;;2.60;1.65;;;;;;;5.08;100.00;103585.84;5051973;28;20036;-78
2021/12/19 06:23:01;;;;;;;6.28;1.70;;;;;;;5.08;100.00;103587.63;5051355;28;20041;-78
2021/12/19 06:25:27;;;;;;;5.63;2.15;;;;;;;5.08;100.00;103579.72;5053412;28;20033;-78
2021/12/19 06:27:53;;;;;;;5.97;1.88;;;;;;;5.08;100.00;103571.78;5054464;28;20040;-82
2021/12/19 06:30:18;;;;;;;6.28;2.05;;;;;;;5.09;100.00;103576.16;5055361;28;20033;-78
2021/12/19 06:32:44;;;;;;;3.38;1.88;;;;;;;5.09;100.00;103577.03;5054444;28;20052;-78
2021/12/19 06:35:18;;;;;;;5.07;1.50;;;;;;;5.10;100.00;103576.09;5055344;28;20056;-79
2021/12/19 06:37:47;;;;;;;4.25;1.40;;;;;;;5.11;100.00;103571.72;5056134;28;20127;-78
2021/12/19 06:40:15;;;;;;;5.50;1.73;;;;;;;5.10;100.00;103570.81;5055412;28;20033;-78
2021/12/19 06:42:41;;;;;;;3.67;1.40;;;;;;;5.10;100.00;103559.41;5055927;28;20132;-77
2021/12/19 06:45:07;;;;;;;8.30;1.80;;;;;;;5.09;100.00;103562.94;5055269;28;20491;-78
2021/12/19 06:47:32;;;;;;;5.53;2.00;;;;;;;5.10;100.00;103549.72;5055347;28;20029;-77
2021/12/19 06:49:58;;;;;;;4.35;1.60;;;;;;;5.11;100.00;103553.25;5053637;28;20039;-83
2021/12/19 06:52:23;;;;;;;9.63;1.92;;;;;;;5.10;100.00;103554.13;5055482;28;20389;-78
2021/12/19 06:54:49;;;;;;;4.10;1.77;;;;;;;5.08;100.00;103553.31;5055231;28;20371;-78
2021/12/19 06:57:14;;;;;;;6.50;1.90;;;;;;;5.08;100.00;103550.69;5054458;28;20033;-79
2021/12/19 06:59:39;;;;;;;3.45;1.55;;;;;;;5.05;100.00;103540.19;5054976;28;20029;-78
2021/12/19 07:02:05;;;;;;;6.82;1.50;;;;;;;5.03;100.00;103539.34;5054953;28;20063;-79
2021/12/19 07:04:30;;;;;;;6.05;1.50;;;;;;;4.98;100.00;103538.59;5055277;28;20052;-78
2021/12/19 07:06:56;;;;;;;2.55;1.17;;;;;;;4.93;100.00;103534.28;5055212;28;20059;-78
2021/12/19 07:09:21;;;;;;;2.70;1.10;;;;;;;4.91;100.00;103541.41;5054606;28;20529;-78
2021/12/19 07:11:47;;;;;;;4.13;1.40;;;;;;;4.91;100.00;103543.16;5055003;28;20458;-78
2021/12/19 07:14:12;;;;;;;2.85;0.90;;;;;;;4.91;100.00;103546.66;5054137;28;20374;-78
2021/12/19 07:16:38;;;;;;;6.07;1.20;;;;;;;4.91;100.00;103549.31;5053626;28;20091;-78
2021/12/19 07:19:03;;;;;;;6.60;1.05;;;;;;;4.90;100.00;103550.19;5052941;28;20460;-79
2021/12/19 07:21:29;;;;;;;3.20;1.30;;;;;;;4.90;100.00;103542.28;5055072;28;20424;-78
2021/12/19 07:23:54;;;;;;;3.65;1.15;;;;;;;4.91;100.00;103543.16;5054777;28;20036;-78
2021/12/19 07:26:20;;;;;;;7.90;1.20;;;;;;;4.89;100.00;103540.53;5054104;28;20033;-78
2021/12/19 07:28:47;;;;;;;4.90;1.40;;;;;;;4.89;100.00;103537.06;5054527;28;20033;-79
2021/12/19 07:31:20;;;;;;;10.18;1.30;;;;;;;4.88;100.00;103532.66;5052548;28;20033;-78
2021/12/19 07:33:45;;;;;;;2.72;1.25;;;;;;;4.89;100.00;103535.25;5054826;28;20033;-78
2021/12/19 07:36:12;;;;;;;6.22;1.60;;;;;;;4.88;100.00;103536.19;5052889;28;20052;-78
2021/12/19 07:38:49;;;;;;;5.70;2.28;;;;;;;4.91;100.00;103540.50;5054628;28;20055;-77
2021/12/19 07:41:15;;;;;;;5.25;1.52;;;;;;;4.91;100.00;103545.78;5053756;28;20491;-77
2021/12/19 07:43:40;;;;;;;6.63;1.80;;;;;;;4.93;100.00;103541.34;5054096;28;20044;-77
2021/12/19 07:46:06;;;;;;;6.57;1.80;;;;;;;4.93;100.00;103534.28;5053692;28;20112;-78
2021/12/19 07:48:31;;;;;;;6.07;2.30;;;;;;;4.97;100.00;103537.75;5052674;28;20048;-76
2021/12/19 07:50:56;;;;;;;6.57;2.10;;;;;;;4.99;100.00;103535.06;5053879;28;20052;-76
2021/12/19 07:53:22;;;;;;;7.35;1.80;;;;;;;4.99;100.00;103535.06;5053797;28;20041;-77
2021/12/19 07:55:47;;;;;;;6.53;2.00;;;;;;;4.99;100.00;103530.66;5052846;28;20082;-77
2021/12/19 07:58:13;;;;;;;7.30;2.45;;;;;;;5.02;100.00;103535.00;5053710;28;20040;-78
2021/12/19 08:00:38;;;;;;;8.30;2.53;;;;;;;5.03;100.00;103537.59;5054357;28;20457;-78
2021/12/19 08:03:04;;;;;;;8.07;3.08;;;;;;;5.02;100.00;103535.00;5054187;28;20037;-77
2021/12/19 08:05:29;;;;;;;6.75;2.00;;;;;;;5.00;100.00;103531.50;5053923;28;20394;-79
2021/12/19 08:07:59;;;;;;;7.00;2.60;;;;;;;5.00;100.00;103534.16;5053862;28;20064;-79
2021/12/19 08:12:51;;;;;;;5.68;1.70;;;;;;;5.02;100.00;103529.72;5053786;28;20036;-78
2021/12/19 08:15:16;;;;;;;3.97;1.60;;;;;;;5.04;100.00;103530.53;5053455;28;20029;-78
2021/12/19 08:17:41;;;;;;;5.75;1.45;;;;;;;5.05;100.00;103527.88;5053689;28;20029;-78
2021/12/19 08:20:14;;;;;;;3.45;1.40;;;;;;;5.07;100.00;103528.69;5053458;28;20033;-82
2021/12/19 08:22:39;;;;;;;4.50;1.50;;;;;;;5.07;100.00;103526.03;5054065;28;20039;-77
2021/12/19 08:25:05;;;;;;;3.40;1.70;;;;;;;5.08;100.00;103521.66;5052630;28;20219;-78
2021/12/19 08:27:33;;;;;;;5.80;1.80;;;;;;;5.10;100.00;103519.81;5053048;28;20063;-78
2021/12/19 08:29:58;;;;;;;6.15;2.25;;;;;;;5.11;100.00;103518.94;5053537;28;20500;-78
2021/12/19 08:32:24;;;;;;;4.95;2.42;;;;;;;5.13;100.00;103511.84;5053413;28;20033;-78
2021/12/19 08:34:50;;;;;;;6.20;2.47;;;;;;;5.15;100.00;103511.78;5053276;28;20044;-78
2021/12/19 08:37:16;;;;;;;4.93;2.30;;;;;;;5.18;100.00;103512.59;5051547;28;20045;-76
2021/12/19 08:39:42;;;;;;;4.30;1.88;;;;;;;5.19;100.00;103513.47;5052824;28;20132;-77
2021/12/19 08:42:09;;;;;;;7.15;2.65;;;;;;;5.18;100.00;103512.59;5052540;28;20040;-76
2021/12/19 08:44:35;;;;;;;4.47;2.00;;;;;;;5.19;100.00;103503.75;5052654;28;20100;-78
2021/12/19 08:47:01;;;;;;;4.85;1.95;;;;;;;5.21;100.00;103509.00;5051645;28;20090;-76
2021/12/19 08:49:26;;;;;;;4.25;1.58;;;;;;;5.23;100.00;103508.06;5052482;28;20450;-77
2021/12/19 08:51:52;;;;;;;7.90;1.67;;;;;;;5.25;100.00;103508.03;5053188;28;20033;-75
2021/12/19 08:54:18;;;;;;;4.10;1.60;;;;;;;5.26;100.00;103507.97;5052247;28;20025;-75
2021/12/19 08:56:43;;;;;;;5.68;1.70;;;;;;;5.27;100.00;103509.72;5052648;28;20525;-78
2021/12/19 08:59:10;;;;;;;3.75;1.55;;;;;;;5.28;100.00;103508.81;5052738;28;20044;-75
2021/12/19 09:01:36;;;;;;;5.28;1.92;;;;;;;5.31;100.00;103505.22;5052324;28;20037;-77
2021/12/19 09:04:01;;;;;;;8.00;2.30;;;;;;;5.32;100.00;103500.81;5051712;28;20485;-78
2021/12/19 09:06:27;;;;;;;7.45;2.20;;;;;;;5.34;100.00;103514.84;5047597;28;20131;-75
2021/12/19 09:08:53;;;;;;;9.57;2.38;;;;;;;5.34;100.00;103512.19;5050075;28;20435;-74
2021/12/19 09:11:18;;;;;;;5.97;2.80;;;;;;;5.35;100.00;103506.03;5050162;28;20596;-77
2021/12/19 09:13:44;;;;;;;3.70;1.77;;;;;;;5.35;100.00;103501.59;5050748;28;20041;-78
2021/12/19 09:16:09;;;;;;;6.85;1.95;;;;;;;5.41;100.00;103500.56;5050740;28;20101;-77
2021/12/19 09:18:35;;;;;;;5.45;1.60;;;;;;;5.42;100.00;103503.19;5050509;28;20033;-77
2021/12/19 09:21:00;;;;;;;2.45;1.40;;;;;;;5.42;100.00;103504.94;5051103;28;20036;-77
2021/12/19 09:23:27;;;;;;;6.60;1.73;;;;;;;5.45;100.00;103508.38;5050302;28;20451;-76
2021/12/19 09:25:53;;;;;;;2.70;1.50;;;;;;;5.50;100.00;103500.31;5050975;28;20564;-78
2021/12/19 09:28:18;;;;;;;7.00;1.40;;;;;;;5.49;100.00;103498.59;5047908;28;20477;-77
2021/12/19 09:30:45;;;;;;;3.10;1.40;;;;;;;5.45;100.00;103497.81;5048892;28;20079;-78
2021/12/19 09:33:11;;;;;;;3.58;1.33;;;;;;;5.48;100.00;103496.88;5050116;28;20033;-77
2021/12/19 09:35:37;;;;;;;4.00;1.52;;;;;;;5.49;100.00;103498.59;5048849;28;20061;-75
2021/12/19 09:38:04;;;;;;;4.30;2.70;;;;;;;5.46;100.00;103499.56;5049758;28;20029;-74
2021/12/19 09:40:36;;;;;;;8.88;3.10;;;;;;;5.49;100.00;103495.94;5048637;28;20080;-74
2021/12/19 09:43:10;;;;;;;6.65;1.58;;;;;;;5.49;100.00;103493.31;5049905;28;20122;-76
2021/12/19 09:45:36;;;;;;;5.32;1.58;;;;;;;5.49;100.00;103498.59;5049054;28;20028;-75
2021/12/19 09:48:02;;;;;;;8.27;1.77;;;;;;;5.54;100.00;103501.09;5065229;28;20441;-75
2021/12/19 09:50:29;;;;;;;6.25;1.67;;;;;;;5.64;100.00;103503.47;5049478;28;20111;-74
2021/12/19 09:52:55;;;;;;;3.10;1.60;;;;;;;5.76;100.00;103501.38;5049221;28;20047;-74
2021/12/19 09:55:21;;;;;;;2.13;1.10;;;;;;;5.80;100.00;103495.97;5048702;28;20112;-79
2021/12/19 09:57:49;;;;;;;1.73;1.10;;;;;;;5.78;100.00;103496.94;5049505;28;20040;-73
2021/12/19 10:00:16;;;;;;;3.42;1.08;;;;;;;5.78;100.00;103502.22;5049007;28;20037;-74
2021/12/19 10:02:42;;;;;;;2.15;0.85;;;;;;;5.83;100.00;103493.25;5049028;28;20103;-76
2021/12/19 10:05:19;;;;;;;3.13;0.77;;;;;;;5.84;100.00;103488.84;5047770;28;20473;-74
2021/12/19 10:07:48;;;;;;;4.25;0.75;;;;;;;5.82;100.00;103498.56;5049079;28;20055;-76
2021/12/19 10:10:24;;;;;;;5.72;2.33;;;;;;;5.86;100.00;103491.44;5049905;28;20041;-78
2021/12/19 10:12:53;;;;;;;1.63;0.77;;;;;;;5.85;100.00;103494.97;5049130;28;20087;-72
2021/12/19 10:15:33;;;;;;;1.60;0.52;;;;;;;5.83;100.00;103487.97;5047337;28;20056;-73
2021/12/19 10:18:12;;;;;;;1.33;0.38;;;;;;;5.82;100.00;103482.72;5047578;28;20029;-76
2021/12/19 10:20:52;;;;;;;2.50;0.85;;;;;;;5.80;100.00;103476.63;5049086;28;20480;-75
2021/12/19 10:23:24;;;;;;;1.90;0.52;;;;;;;5.78;100.00;103474.03;5048859;28;20124;-75
2021/12/19 10:26:08;;;;;;;0.80;0.60;;;;;;;5.77;100.00;103471.44;5048701;28;20033;-74
2021/12/19 10:28:49;;;;;;;4.13;1.08;;;;;;;5.77;100.00;103467.00;5048524;28;20029;-76
2021/12/19 10:31:14;;;;;;;3.67;1.30;;;;;;;5.76;100.00;103473.22;5049199;28;20029;-78
2021/12/19 10:33:40;;;;;;;5.00;2.05;;;;;;;5.77;100.00;103471.44;5048797;28;20055;-76
2021/12/19 10:36:07;;;;;;;6.05;3.15;;;;;;;5.76;100.00;103472.31;5049056;28;20053;-77
2021/12/19 10:38:36;;;;;;;12.82;6.25;;;;;;;5.77;100.00;103469.63;5048480;28;20401;-78
2021/12/19 10:41:09;;;;;;;6.28;3.35;;;;;;;5.80;100.00;103461.63;5048656;28;20044;-76
2021/12/19 10:43:42;;;;;;;8.13;4.88;;;;;;;5.83;100.00;103465.97;5048121;28;20072;-78
2021/12/19 10:46:07;;;;;;;17.00;11.45;;;;;;;5.83;100.00;103456.25;5047575;28;20040;-75
2021/12/19 10:48:39;;;;;;;8.23;2.85;;;;;;;5.83;100.00;103452.75;5048161;28;20463;-76
2021/12/19 10:51:11;;;;;;;11.07;3.55;;;;;;;5.86;100.00;103452.66;5048641;28;20111;-76
2021/12/19 10:53:54;;;;;;;14.90;3.05;;;;;;;5.88;100.00;103440.28;5047753;28;20094;-75
2021/12/19 10:56:34;;;;;;;10.05;3.25;;;;;;;5.86;100.00;103439.44;5048586;28;20037;-77
2021/12/19 10:59:01;;;;;;;18.02;3.55;;;;;;;5.89;100.00;103435.84;5047060;28;20037;-76
2021/12/19 11:01:37;;;;;;;14.10;4.03;;;;;;;5.90;100.00;103430.53;5048215;28;20115;-83
2021/12/19 11:04:11;;;;;;;15.27;3.88;;;;;;;5.92;100.00;103430.47;5048388;28;20029;-77
2021/12/19 11:06:42;;;;;;;9.38;4.10;;;;;;;5.93;100.00;103425.16;5048070;28;20036;-76
2021/12/19 11:09:12;;;;;;;11.63;4.25;;;;;;;5.95;100.00;103425.97;5048552;28;20029;-76
2021/12/19 11:11:47;;;;;;;10.90;3.78;;;;;;;5.97;100.00;103423.31;5048111;28;20032;-76
2021/12/19 11:14:32;;;;;;;17.45;4.00;;;;;;;5.98;100.00;103415.31;5052027;28;20037;-76
2021/12/19 11:17:01;;;;;;;14.48;3.92;;;;;;;6.00;100.00;103420.56;5051325;28;20036;-77
2021/12/19 11:19:27;;;;;;;13.23;3.83;;;;;;;5.99;100.00;103409.13;5051815;28;20065;-78
2021/12/19 11:21:53;;;;;;;12.85;3.70;;;;;;;6.02;100.00;103413.47;5051455;28;20550;-77
2021/12/19 11:24:20;;;;;;;13.27;3.40;;;;;;;6.01;100.00;103406.44;5051774;28;20123;-76
2021/12/19 11:26:49;;;;;;;13.18;3.55;;;;;;;6.00;100.00;103402.94;5051162;28;20063;-76
2021/12/19 11:29:15;;;;;;;16.35;3.53;;;;;;;5.96;100.00;103398.63;5051278;28;20025;-76
2021/12/19 11:31:46;;;;;;;11.90;3.08;;;;;;;5.95;100.00;103396.03;5049983;28;20087;-76
2021/12/19 11:34:18;;;;;;;14.30;3.25;;;;;;;5.94;100.00;103394.28;5050471;28;20074;-75
2021/12/19 11:36:49;;;;;;;12.60;3.15;;;;;;;5.94;100.00;103391.66;5051088;28;20049;-75
2021/12/19 11:39:16;;;;;;;13.82;2.70;;;;;;;5.94;100.00;103376.69;5050734;28;20047;-76
2021/12/19 11:42:14;;;;;;;8.93;2.25;;;;;;;5.95;100.00;103388.97;5050473;28;20044;-74
2021/12/19 11:47:50;;;;;;;15.70;2.67;;;;;;;5.94;100.00;103374.03;5051705;28;20449;-77
2021/12/19 11:50:22;;;;;;;12.88;2.80;;;;;;;5.93;100.00;103368.81;5050967;28;20485;-76
2021/12/19 11:52:50;;;;;;;10.52;3.00;;;;;;;5.93;100.00;103371.44;5050349;28;20039;-77
2021/12/19 11:55:22;;;;;;;13.13;2.88;;;;;;;5.94;100.00;103366.09;5051039;28;20040;-77
2021/12/19 11:58:06;;;;;;;15.50;3.53;;;;;;;5.97;100.00;103358.13;5050549;28;20039;-76
2021/12/19 12:00:40;;;;;;;16.15;3.42;;;;;;;5.98;100.00;103356.31;5051021;28;20044;-76
2021/12/19 12:03:11;;;;;;;12.32;3.70;;;;;;;5.99;100.00;103353.63;5051228;28;20068;-77
2021/12/19 12:06:09;;;;;;;11.30;2.97;;;;;;;6.03;100.00;103357.06;5050340;28;20037;-79
2021/12/19 12:08:34;;;;;;;12.38;3.45;;;;;;;6.04;100.00;103355.28;5050693;28;20033;-75
2021/12/19 12:11:01;;;;;;;11.30;3.70;;;;;;;6.02;100.00;103352.69;5050453;28;20040;-77
2021/12/19 12:13:52;;;;;;;18.13;3.72;;;;;;;6.00;100.00;103358.03;5051270;28;20408;-74
2021/12/19 12:19:00;;;;;;;10.75;2.42;;;;;;;5.98;100.00;103361.63;5050524;28;19959;-73
2021/12/19 12:21:32;;;;;;;15.00;2.53;;;;;;;5.98;100.00;103351.03;5035739;28;20056;-80
2021/12/19 12:24:18;;;;;;;9.05;1.38;;;;;;;5.91;100.00;103345.06;5050185;28;20098;-74
2021/12/19 12:26:54;;;;;;;9.05;1.77;;;;;;;5.85;100.00;103347.88;5050541;28;20037;-76
2021/12/19 12:29:21;;;;;;;5.70;1.95;;;;;;;5.81;100.00;103336.53;5050508;28;20032;-75
2021/12/19 12:31:47;;;;;;;10.77;2.10;;;;;;;5.78;100.00;103341.06;5049968;28;20115;-74
2021/12/19 12:34:16;;;;;;;9.45;3.45;;;;;;;5.76;100.00;103351.69;5050406;28;20037;-77
2021/12/19 12:36:43;;;;;;;11.00;2.67;;;;;;;5.74;100.00;103344.69;5049805;28;20162;-85
2021/12/19 12:39:18;;;;;;;5.72;1.58;;;;;;;5.69;100.00;103342.22;5050143;28;20482;-73
2021/12/19 12:44:14;;;;;;;7.70;1.55;;;;;;;5.70;100.00;103338.63;5050906;28;20036;-74